Time;durP1;ratioP1;P1;durP2;ratioP2;P2;SDS_P1;SDS_P2;PMS_P1;PMS_P2;Temp;Humidity;BMP_temperature;BMP_pressure;BME280_temperature;BME280_humidity;BME280_pressure;Samples;Min_cycle;Max_cycle;Signal;HPM_P1;HPM_P2
2021/09/14 00:00:39;;;;;;;5.40;3.95;;;;;;;15.71;95.43;98885.94;5033575;28;20056;-82
2021/09/14 00:03:06;;;;;;;5.35;3.45;;;;;;;15.80;95.64;98897.47;5034223;28;20402;-83
2021/09/14 00:05:33;;;;;;;5.68;3.55;;;;;;;15.72;95.79;98881.31;5044272;28;20055;-83
2021/09/14 00:08:01;;;;;;;6.25;4.05;;;;;;;15.75;95.56;98897.31;5053986;28;20045;-83
2021/09/14 00:10:28;;;;;;;5.13;3.75;;;;;;;15.67;96.00;98887.47;5053562;28;20480;-82
2021/09/14 00:12:55;;;;;;;5.03;3.75;;;;;;;15.60;95.85;98875.72;5053752;28;20385;-82
2021/09/14 00:15:22;;;;;;;6.18;3.40;;;;;;;15.61;95.95;98874.66;5050533;28;20056;-83
2021/09/14 00:17:49;;;;;;;5.18;3.60;;;;;;;15.58;96.34;98873.22;5036758;28;20049;-83
2021/09/14 00:20:15;;;;;;;4.90;3.92;;;;;;;15.55;96.31;98876.41;5049089;28;20049;-83
2021/09/14 00:22:42;;;;;;;5.97;3.67;;;;;;;15.60;95.83;98885.81;5052926;28;20045;-83
2021/09/14 00:25:12;;;;;;;4.85;3.58;;;;;;;15.58;96.16;98888.78;5042283;28;20060;-83
2021/09/14 00:27:39;;;;;;;6.30;3.80;;;;;;;15.58;96.57;98883.31;5039327;28;20045;-83
2021/09/14 00:30:06;;;;;;;5.00;3.67;;;;;;;15.47;96.45;98876.66;5053480;28;20091;-83
2021/09/14 00:32:33;;;;;;;4.63;3.47;;;;;;;15.44;97.32;98877.13;5053278;28;20336;-83
2021/09/14 00:35:00;;;;;;;8.95;4.20;;;;;;;15.40;96.77;98868.53;5051955;28;20099;-83
2021/09/14 00:37:27;;;;;;;5.70;3.50;;;;;;;15.50;96.39;98889.09;5053716;28;20052;-83
2021/09/14 00:39:54;;;;;;;6.05;4.28;;;;;;;15.43;96.21;98877.34;5053047;28;20053;-82
2021/09/14 00:42:22;;;;;;;4.47;3.83;;;;;;;15.29;96.46;98865.66;5036451;28;20037;-82
2021/09/14 00:44:49;;;;;;;8.43;4.43;;;;;;;15.27;96.92;98874.09;5047629;28;20048;-83
2021/09/14 00:47:16;;;;;;;4.88;3.63;;;;;;;15.21;97.17;98872.25;5053069;28;20077;-82
2021/09/14 00:49:43;;;;;;;6.07;4.03;;;;;;;15.17;97.17;98865.53;5053189;28;20076;-82
2021/09/14 00:52:11;;;;;;;4.78;3.33;;;;;;;15.30;97.46;98883.78;5052414;28;20048;-82
2021/09/14 00:54:39;;;;;;;5.85;4.35;;;;;;;15.27;97.80;98876.84;5052136;28;20397;-82
2021/09/14 00:57:06;;;;;;;6.68;3.67;;;;;;;15.25;97.80;98856.19;5052301;28;20057;-82
2021/09/14 00:59:34;;;;;;;8.25;4.45;;;;;;;15.32;99.40;98863.31;5053021;28;20053;-82
2021/09/14 01:02:01;;;;;;;6.30;4.13;;;;;;;15.36;99.72;98872.75;5031871;28;20492;-82
2021/09/14 01:04:28;;;;;;;8.88;4.97;;;;;;;15.36;100.00;98872.75;5033020;28;20540;-81
2021/09/14 01:06:55;;;;;;;6.45;4.75;;;;;;;15.37;100.00;98858.00;5033933;28;20074;-82
2021/09/14 01:09:23;;;;;;;6.20;4.78;;;;;;;15.48;100.00;98872.03;5038662;28;20466;-82
2021/09/14 01:11:51;;;;;;;5.22;4.28;;;;;;;15.40;99.92;98868.53;5052190;28;20048;-82
2021/09/14 01:14:17;;;;;;;6.78;4.20;;;;;;;15.42;100.00;98872.94;5049954;28;20052;-82
2021/09/14 01:16:46;;;;;;;6.03;4.88;;;;;;;15.35;100.00;98853.81;5036825;28;20763;-83
2021/09/14 01:19:13;;;;;;;6.50;4.47;;;;;;;15.47;100.00;98871.19;5052835;28;20056;-82
2021/09/14 01:21:40;;;;;;;7.53;4.75;;;;;;;15.37;100.00;98860.75;5046054;28;20040;-83
2021/09/14 01:24:09;;;;;;;5.47;3.92;;;;;;;15.34;100.00;98863.94;5035526;28;20497;-82
2021/09/14 01:26:36;;;;;;;6.07;4.53;;;;;;;15.20;100.00;98856.88;5043369;28;20060;-82
2021/09/14 01:29:08;;;;;;;6.25;4.22;;;;;;;15.29;100.00;98863.75;5052378;28;20053;-82
2021/09/14 01:31:35;;;;;;;8.27;4.40;;;;;;;15.37;100.00;98877.19;5048116;28;20111;-82
2021/09/14 01:34:02;;;;;;;6.15;4.22;;;;;;;15.33;100.00;98866.91;5035421;28;20045;-82
2021/09/14 01:36:30;;;;;;;5.18;4.00;;;;;;;15.37;100.00;98873.59;5051625;28;20052;-82
2021/09/14 01:38:56;;;;;;;5.95;4.82;;;;;;;15.32;100.00;98852.34;5051400;28;20519;-82
2021/09/14 01:41:25;;;;;;;9.85;4.50;;;;;;;15.31;100.00;98855.31;5034554;28;20045;-82
2021/09/14 01:43:51;;;;;;;7.32;5.10;;;;;;;15.32;100.00;98868.78;5032768;28;20477;-82
2021/09/14 01:46:18;;;;;;;5.68;4.20;;;;;;;15.21;100.00;98856.66;5047721;28;20496;-82
2021/09/14 01:48:45;;;;;;;5.38;4.72;;;;;;;15.26;100.00;98858.72;5032152;28;20049;-82
2021/09/14 01:51:14;;;;;;;5.30;4.57;;;;;;;15.27;99.93;98865.06;5049653;28;20488;-82
2021/09/14 01:53:41;;;;;;;7.60;4.43;;;;;;;15.17;99.77;98860.88;5052188;28;20045;-82
2021/09/14 01:56:08;;;;;;;8.38;5.28;;;;;;;15.20;99.51;98870.56;5051633;28;20137;-82
2021/09/14 01:58:36;;;;;;;7.30;4.50;;;;;;;15.17;99.86;98873.75;5052281;28;20049;-82
2021/09/14 02:01:07;;;;;;;8.90;4.05;;;;;;;15.04;99.67;98858.28;5051577;28;20055;-82
2021/09/14 02:06:29;;;;;;;5.85;4.35;;;;;;;14.98;100.00;98876.41;5028906;28;20081;-82
2021/09/14 02:56:24;;;;;;;8.40;5.18;;;;;;;14.21;100.00;98861.81;5048675;28;20071;-82
2021/09/14 02:58:50;;;;;;;9.85;6.13;;;;;;;14.00;100.00;98836.47;5036788;28;20131;-82
2021/09/14 03:01:17;;;;;;;6.55;4.95;;;;;;;14.03;100.00;98836.03;5038335;28;20124;-82
2021/09/14 03:03:49;;;;;;;5.30;4.47;;;;;;;14.03;100.00;98851.59;5050836;28;20107;-82
2021/09/14 03:06:16;;;;;;;8.05;5.30;;;;;;;13.99;100.00;98835.63;5051372;28;20056;-82
2021/09/14 03:08:43;;;;;;;5.00;4.20;;;;;;;13.94;100.00;98838.16;5051448;28;20059;-82
2021/09/14 03:11:12;;;;;;;7.32;4.32;;;;;;;13.92;100.00;98848.44;5050641;28;20057;-82
2021/09/14 03:13:40;;;;;;;4.72;4.20;;;;;;;13.90;100.00;98850.56;5051327;28;20049;-82
2021/09/14 03:16:08;;;;;;;4.85;4.32;;;;;;;13.85;100.00;98846.78;5051309;28;20044;-82
2021/09/14 03:18:36;;;;;;;5.45;4.35;;;;;;;14.02;100.00;98858.94;5040180;28;20107;-81
2021/09/14 03:21:05;;;;;;;9.63;5.05;;;;;;;13.97;100.00;98831.41;5039428;28;20492;-82
2021/09/14 03:23:33;;;;;;;5.20;4.25;;;;;;;14.07;100.00;98850.09;5039157;28;20045;-82
2021/09/14 03:26:06;;;;;;;5.45;3.80;;;;;;;13.71;100.00;98822.22;5038448;28;20049;-82
2021/09/14 03:28:33;;;;;;;5.38;3.88;;;;;;;13.54;100.00;98831.94;5051055;28;20084;-82
2021/09/14 03:31:00;;;;;;;7.82;4.22;;;;;;;13.63;100.00;98845.16;5054561;28;20458;-82
2021/09/14 03:33:27;;;;;;;6.72;4.85;;;;;;;13.74;100.00;98859.22;5044287;28;20132;-82
2021/09/14 03:35:54;;;;;;;7.30;4.70;;;;;;;13.88;100.00;98860.88;5049239;28;20390;-82
2021/09/14 03:38:22;;;;;;;6.78;4.80;;;;;;;13.76;100.00;98844.31;5054287;28;20052;-82
2021/09/14 03:40:49;;;;;;;13.38;5.25;;;;;;;13.72;100.00;98837.59;5054460;28;20078;-82
2021/09/14 03:43:17;;;;;;;6.78;4.72;;;;;;;13.76;100.00;98841.56;5053964;28;20049;-82
2021/09/14 03:45:46;;;;;;;8.63;4.75;;;;;;;13.67;100.00;98844.72;5053958;28;20385;-82
2021/09/14 03:48:14;;;;;;;5.78;4.32;;;;;;;13.58;100.00;98844.13;5054085;28;20079;-82
2021/09/14 03:50:41;;;;;;;7.85;5.10;;;;;;;13.70;100.00;98852.50;5051914;28;20492;-83
2021/09/14 03:53:08;;;;;;;5.50;4.18;;;;;;;13.58;100.00;98846.88;5054329;28;20084;-82
2021/09/14 03:55:37;;;;;;;5.60;4.53;;;;;;;13.59;100.00;98854.00;5053441;28;20488;-82
2021/09/14 03:58:03;;;;;;;8.00;5.50;;;;;;;13.53;100.00;98835.72;5054254;28;20432;-82
2021/09/14 04:00:30;;;;;;;6.90;4.97;;;;;;;13.60;100.00;98826.47;5054079;28;20053;-82
2021/09/14 04:03:00;;;;;;;7.15;5.20;;;;;;;13.62;100.00;98829.84;5053925;28;20060;-82
2021/09/14 04:05:43;;;;;;;6.30;4.38;;;;;;;13.56;100.00;98848.94;5053536;28;20048;-83
2021/09/14 04:10:56;;;;;;;7.32;5.18;;;;;;;13.52;100.00;98823.09;5039288;28;20052;-83
2021/09/14 04:13:23;;;;;;;8.95;4.93;;;;;;;13.61;100.00;98840.97;5053715;28;20126;-82
2021/09/14 04:15:50;;;;;;;9.63;4.72;;;;;;;13.63;100.00;98836.13;5053111;28;20056;-82
2021/09/14 04:18:17;;;;;;;9.68;5.80;;;;;;;13.69;100.00;98838.00;5053573;28;20485;-83
2021/09/14 04:20:44;;;;;;;6.80;4.70;;;;;;;13.58;100.00;98822.28;5053541;28;20060;-83
2021/09/14 04:23:10;;;;;;;6.60;4.40;;;;;;;13.68;100.00;98830.03;5035515;28;20501;-82
2021/09/14 04:25:37;;;;;;;5.82;4.70;;;;;;;13.79;100.00;98849.34;5053299;28;20049;-82
2021/09/14 04:28:06;;;;;;;6.38;5.00;;;;;;;13.79;100.00;98851.25;5035090;28;20053;-82
2021/09/14 04:30:33;;;;;;;8.55;4.97;;;;;;;13.70;100.00;98827.91;5033466;28;20049;-82
2021/09/14 04:33:00;;;;;;;7.07;5.53;;;;;;;13.70;100.00;98836.09;5044565;28;20107;-83
2021/09/14 04:35:27;;;;;;;8.85;5.32;;;;;;;13.71;100.00;98824.97;5053107;28;20079;-82
2021/09/14 04:37:53;;;;;;;8.88;5.22;;;;;;;13.84;100.00;98850.59;5053097;28;20044;-83
2021/09/14 04:40:20;;;;;;;5.75;4.60;;;;;;;13.77;100.00;98837.75;5053982;28;20390;-80
2021/09/14 04:42:47;;;;;;;10.38;4.47;;;;;;;13.59;100.00;98837.59;5052606;28;20041;-82
2021/09/14 04:45:15;;;;;;;7.90;5.38;;;;;;;13.63;100.00;98852.53;5041408;28;20045;-80
2021/09/14 04:47:42;;;;;;;5.75;4.70;;;;;;;13.61;100.00;98844.53;5038382;28;20061;-80
2021/09/14 04:50:10;;;;;;;5.45;4.07;;;;;;;13.63;100.00;98838.88;5034700;28;20068;-81
2021/09/14 04:52:37;;;;;;;5.20;4.28;;;;;;;13.35;100.00;98836.38;5033053;28;20050;-81
2021/09/14 04:55:05;;;;;;;5.63;4.55;;;;;;;13.43;100.00;98836.16;5036472;28;20057;-81
2021/09/14 04:57:32;;;;;;;6.80;4.68;;;;;;;13.52;100.00;98848.56;5035567;28;20119;-81
2021/09/14 04:59:58;;;;;;;9.45;4.97;;;;;;;13.40;100.00;98856.53;5024426;28;20156;-81
2021/09/14 05:02:27;;;;;;;5.50;4.55;;;;;;;13.22;100.00;98820.81;5052618;28;20041;-81
2021/09/14 05:04:54;;;;;;;5.68;4.75;;;;;;;13.17;100.00;98817.88;5052284;28;20501;-81
2021/09/14 05:07:20;;;;;;;6.93;4.85;;;;;;;13.28;100.00;98819.97;5038315;28;20489;-81
2021/09/14 05:09:47;;;;;;;17.25;5.40;;;;;;;13.32;100.00;98820.38;5033892;28;20041;-81
2021/09/14 05:12:14;;;;;;;5.82;4.70;;;;;;;13.35;100.00;98833.63;5045311;28;20056;-82
2021/09/14 05:14:41;;;;;;;6.63;4.82;;;;;;;13.28;100.00;98822.69;5052529;28;20431;-81
2021/09/14 05:17:08;;;;;;;9.40;5.45;;;;;;;13.44;100.00;98832.38;5052185;28;20044;-81
2021/09/14 05:19:38;;;;;;;7.53;5.32;;;;;;;13.43;100.00;98834.25;5052719;28;20550;-82
2021/09/14 05:22:05;;;;;;;6.00;4.95;;;;;;;13.40;100.00;98822.94;5052923;28;20049;-82
2021/09/14 05:24:34;;;;;;;9.65;4.88;;;;;;;13.37;100.00;98816.00;5051738;28;20055;-82
2021/09/14 05:27:03;;;;;;;7.43;4.78;;;;;;;13.34;100.00;98830.09;5052456;28;20044;-81
2021/09/14 05:29:35;;;;;;;7.95;4.95;;;;;;;13.33;100.00;98839.28;5037913;28;20052;-81
2021/09/14 05:32:02;;;;;;;5.40;4.88;;;;;;;13.20;100.00;98833.81;5039197;28;20137;-82
2021/09/14 05:34:29;;;;;;;6.13;4.75;;;;;;;13.26;100.00;98839.28;5032734;28;20065;-81
2021/09/14 05:36:57;;;;;;;7.40;4.85;;;;;;;13.33;100.00;98844.75;5031957;28;20052;-81
2021/09/14 05:39:24;;;;;;;7.50;5.45;;;;;;;13.39;100.00;98851.28;5032191;28;20563;-81
2021/09/14 05:41:51;;;;;;;13.43;6.40;;;;;;;13.57;100.00;98862.41;5035016;28;20072;-81
2021/09/14 05:44:18;;;;;;;8.95;5.30;;;;;;;13.53;100.00;98861.13;5046626;28;20053;-81
2021/09/14 05:46:44;;;;;;;7.35;5.90;;;;;;;13.44;100.00;98846.03;5051798;28;20052;-81
2021/09/14 05:49:11;;;;;;;8.23;5.90;;;;;;;13.41;100.00;98849.19;5049471;28;20049;-81
2021/09/14 05:51:38;;;;;;;9.60;5.97;;;;;;;13.52;100.00;98861.34;5045700;28;20053;-81
2021/09/14 05:54:06;;;;;;;7.65;6.07;;;;;;;13.53;100.00;98866.59;5052148;28;20041;-81
2021/09/14 05:56:33;;;;;;;7.28;5.82;;;;;;;13.62;100.00;98876.28;5050477;28;20052;-79
2021/09/14 05:59:00;;;;;;;8.43;5.22;;;;;;;13.65;100.00;98849.56;5051912;28;20053;-81
2021/09/14 06:01:28;;;;;;;26.17;6.65;;;;;;;13.84;100.00;98869.72;5051971;28;20110;-79
2021/09/14 06:03:55;;;;;;;10.88;6.57;;;;;;;13.95;100.00;98864.41;5051505;28;20073;-79
2021/09/14 06:06:22;;;;;;;11.05;6.75;;;;;;;14.03;100.00;98876.19;5043730;28;20557;-80
2021/09/14 06:08:49;;;;;;;6.53;5.85;;;;;;;14.16;100.00;98878.88;5046082;28;20052;-80
2021/09/14 06:11:17;;;;;;;7.68;5.35;;;;;;;14.23;100.00;98859.72;5052031;28;20056;-80
2021/09/14 06:13:44;;;;;;;14.48;6.30;;;;;;;14.48;100.00;98873.50;5039640;28;20045;-81
2021/09/14 06:16:11;;;;;;;14.50;6.38;;;;;;;14.58;100.00;98856.63;5034411;28;20576;-80
2021/09/14 06:18:38;;;;;;;10.52;6.93;;;;;;;14.75;100.00;98859.72;5036904;28;20045;-80
2021/09/14 06:21:05;;;;;;;8.80;5.95;;;;;;;14.90;100.00;98871.19;5051979;28;20049;-80
2021/09/14 06:23:33;;;;;;;9.90;6.63;;;;;;;14.91;100.00;98861.94;5052458;28;20378;-80
2021/09/14 06:26:00;;;;;;;8.43;6.13;;;;;;;15.07;100.00;98854.22;5051731;28;20049;-80
2021/09/14 06:28:28;;;;;;;11.20;6.50;;;;;;;15.09;100.00;98852.13;5051943;28;20527;-80
2021/09/14 06:30:55;;;;;;;9.75;6.82;;;;;;;15.10;100.00;98856.53;5050856;28;20048;-80
2021/09/14 06:33:23;;;;;;;11.95;6.80;;;;;;;15.21;100.00;98855.81;5033032;28;20049;-80
2021/09/14 06:35:50;;;;;;;10.85;6.60;;;;;;;15.43;100.00;98869.97;5042751;28;20045;-80
2021/09/14 06:38:17;;;;;;;9.45;5.90;;;;;;;15.55;100.00;98872.81;5051541;28;20049;-80
2021/09/14 06:40:43;;;;;;;10.23;5.80;;;;;;;15.60;100.00;98856.53;5051076;28;20114;-79
2021/09/14 06:43:10;;;;;;;12.75;5.57;;;;;;;15.79;99.98;98840.97;5051216;28;20049;-80
2021/09/14 06:45:38;;;;;;;7.45;5.75;;;;;;;16.00;99.49;98858.88;5051050;28;20485;-80
2021/09/14 06:48:05;;;;;;;12.90;5.82;;;;;;;16.15;98.56;98839.31;5051567;28;20049;-80
2021/09/14 06:50:32;;;;;;;10.15;5.32;;;;;;;16.71;98.15;98867.53;5038714;28;20056;-80
2021/09/14 06:53:00;;;;;;;5.93;4.75;;;;;;;17.04;95.72;98858.03;5055211;28;20045;-80
2021/09/14 06:55:27;;;;;;;6.38;5.03;;;;;;;17.39;93.51;98850.91;5054261;28;20059;-80
2021/09/14 06:57:54;;;;;;;9.68;5.32;;;;;;;17.73;92.44;98864.91;5054925;28;20069;-80
2021/09/14 07:00:22;;;;;;;5.50;4.30;;;;;;;17.81;91.28;98848.03;5054610;28;21147;-80
2021/09/14 07:02:50;;;;;;;6.55;4.55;;;;;;;17.97;89.77;98850.09;5055020;28;20052;-80
2021/09/14 07:05:18;;;;;;;8.98;5.25;;;;;;;18.11;89.13;98856.19;5050352;28;20449;-80
2021/09/14 07:07:45;;;;;;;6.78;4.72;;;;;;;18.35;88.60;98864.38;5044244;28;20101;-80
2021/09/14 07:10:12;;;;;;;8.00;5.13;;;;;;;18.40;88.60;98868.09;5054840;28;20099;-80
2021/09/14 07:12:39;;;;;;;11.70;4.70;;;;;;;18.47;87.82;98856.94;5054863;28;20064;-80
2021/09/14 07:15:06;;;;;;;5.50;4.50;;;;;;;18.57;88.24;98854.38;5054767;28;20134;-80
2021/09/14 07:17:37;;;;;;;10.40;4.32;;;;;;;18.67;87.70;98859.25;5054876;28;20057;-80
2021/09/14 07:20:06;;;;;;;10.25;5.00;;;;;;;18.85;86.63;98854.66;5054321;28;20053;-80
2021/09/14 07:22:33;;;;;;;5.75;3.88;;;;;;;18.97;86.18;98869.22;5054027;28;20551;-80
2021/09/14 07:25:00;;;;;;;6.50;3.92;;;;;;;18.90;85.31;98847.31;5042232;28;20067;-80
2021/09/14 07:27:27;;;;;;;6.10;4.22;;;;;;;19.06;84.93;98856.72;5054980;28;20098;-80
2021/09/14 07:29:54;;;;;;;7.43;4.55;;;;;;;19.07;84.37;98843.78;5054721;28;20052;-80
2021/09/14 07:32:20;;;;;;;11.48;4.57;;;;;;;19.26;84.28;98860.91;5054130;28;20398;-80
2021/09/14 07:34:47;;;;;;;7.38;4.95;;;;;;;19.27;82.86;98857.09;5053209;28;20053;-80
2021/09/14 07:37:15;;;;;;;6.53;4.05;;;;;;;19.27;82.89;98848.81;5054505;28;20057;-80
2021/09/14 07:39:42;;;;;;;14.57;4.78;;;;;;;19.38;82.07;98858.91;5040975;28;20057;-80
2021/09/14 07:42:09;;;;;;;8.00;4.25;;;;;;;19.62;82.40;98864.28;5054064;28;20056;-80
2021/09/14 07:44:36;;;;;;;10.88;5.00;;;;;;;19.73;82.69;98855.06;5053887;28;20122;-80
2021/09/14 07:47:02;;;;;;;6.80;3.90;;;;;;;19.83;80.55;98851.66;5052229;28;20052;-80
2021/09/14 07:49:29;;;;;;;5.80;4.38;;;;;;;19.91;78.71;98853.16;5054728;28;20064;-81
2021/09/14 07:51:56;;;;;;;9.07;4.05;;;;;;;19.98;79.56;98846.34;5053955;28;20041;-80
2021/09/14 07:54:26;;;;;;;9.48;4.70;;;;;;;20.30;80.10;98862.22;5053127;28;20378;-80
2021/09/14 07:56:53;;;;;;;6.20;3.90;;;;;;;20.27;78.42;98856.41;5054204;28;20405;-80
2021/09/14 07:59:19;;;;;;;7.35;3.80;;;;;;;20.36;76.73;98857.63;5054014;28;20455;-81
2021/09/14 08:01:46;;;;;;;8.48;3.58;;;;;;;20.54;78.17;98870.25;5052911;28;20049;-80
2021/09/14 08:04:13;;;;;;;6.13;3.33;;;;;;;20.48;76.39;98861.06;5053624;28;20052;-80
2021/09/14 08:06:40;;;;;;;11.15;4.30;;;;;;;20.59;76.58;98861.22;5053924;28;20059;-80
2021/09/14 08:09:06;;;;;;;9.85;4.15;;;;;;;20.68;76.99;98873.50;5052058;28;20451;-80
2021/09/14 08:11:35;;;;;;;10.18;3.85;;;;;;;20.74;76.07;98861.41;5033914;28;20041;-81
2021/09/14 08:14:02;;;;;;;8.48;3.78;;;;;;;20.63;75.66;98874.25;5042313;28;20049;-80
2021/09/14 08:16:29;;;;;;;7.03;3.70;;;;;;;20.61;76.31;98862.63;5053301;28;20049;-80
2021/09/14 08:18:56;;;;;;;10.20;3.97;;;;;;;20.68;77.56;98865.22;5053590;28;20482;-80
2021/09/14 08:21:23;;;;;;;5.20;3.47;;;;;;;20.79;76.93;98879.97;5053575;28;20049;-80
2021/09/14 08:23:50;;;;;;;6.68;3.30;;;;;;;20.82;76.94;98890.50;5053527;28;20056;-80
2021/09/14 08:26:17;;;;;;;8.55;3.97;;;;;;;20.73;76.71;98876.34;5048425;28;20045;-80
2021/09/14 08:28:45;;;;;;;4.57;3.45;;;;;;;20.73;77.18;98881.00;5033596;28;20053;-80
2021/09/14 08:31:12;;;;;;;6.40;4.30;;;;;;;20.81;76.91;98875.84;5044229;28;20048;-80
2021/09/14 08:33:38;;;;;;;5.50;3.05;;;;;;;20.85;77.19;98882.53;5053675;28;20052;-80
2021/09/14 08:36:06;;;;;;;4.10;3.40;;;;;;;21.07;76.55;98884.41;5052540;28;20107;-80
2021/09/14 08:38:33;;;;;;;4.10;3.35;;;;;;;21.07;74.80;98878.06;5053366;28;20045;-80
2021/09/14 08:41:01;;;;;;;10.45;3.60;;;;;;;21.14;75.14;98876.75;5052160;28;20555;-80
2021/09/14 08:43:29;;;;;;;8.90;3.80;;;;;;;21.21;73.91;98888.44;5035211;28;20045;-80
2021/09/14 08:45:58;;;;;;;7.82;3.67;;;;;;;21.31;73.90;98886.88;5032990;28;20052;-80
2021/09/14 08:48:26;;;;;;;4.10;3.25;;;;;;;21.44;73.65;98875.38;5048248;28;20064;-80
2021/09/14 08:50:53;;;;;;;6.30;3.35;;;;;;;21.49;73.53;98878.16;5053140;28;20053;-80
2021/09/14 08:53:20;;;;;;;4.72;3.58;;;;;;;21.59;73.06;98880.22;5052472;28;20057;-80
2021/09/14 08:55:47;;;;;;;4.82;3.42;;;;;;;21.52;70.60;98874.91;5052066;28;20507;-80
2021/09/14 08:58:14;;;;;;;4.47;3.33;;;;;;;21.53;68.73;98887.66;5052339;28;20045;-80
2021/09/14 09:00:42;;;;;;;4.60;2.88;;;;;;;21.55;69.41;98876.31;5052166;28;20057;-80
2021/09/14 09:03:10;;;;;;;3.70;2.88;;;;;;;21.71;70.91;98871.75;5053096;28;20072;-80
2021/09/14 09:05:39;;;;;;;4.40;3.33;;;;;;;21.74;68.92;98860.97;5052273;28;20049;-80
2021/09/14 09:08:17;;;;;;;7.57;3.42;;;;;;;21.90;71.11;98884.06;5052399;28;20049;-80
2021/09/14 09:10:45;;;;;;;7.50;3.58;;;;;;;22.03;70.40;98877.22;5052541;28;20075;-81
2021/09/14 09:13:12;;;;;;;4.82;3.13;;;;;;;22.03;70.71;98868.09;5052080;28;20049;-81
2021/09/14 09:15:38;;;;;;;5.22;3.88;;;;;;;22.04;70.38;98866.97;5045402;28;20041;-80
2021/09/14 09:18:08;;;;;;;5.90;3.17;;;;;;;22.02;69.09;98870.00;5052518;28;20057;-81
2021/09/14 09:20:38;;;;;;;10.15;3.70;;;;;;;21.99;68.57;98873.31;5052447;28;20056;-81
2021/09/14 09:23:07;;;;;;;;;;;;;;;22.02;69.70;98869.19;5052957;28;20053;-80
2021/09/14 09:25:34;;;;;;;6.18;3.28;;;;;;;22.03;68.12;98868.09;5052027;28;19925;-80
2021/09/14 09:28:10;;;;;;;5.65;3.92;;;;;;;21.96;66.61;98861.94;5051760;28;20056;-80
2021/09/14 09:30:40;;;;;;;10.55;3.50;;;;;;;22.04;67.49;98870.59;5052633;28;20053;-80
2021/09/14 09:33:09;;;;;;;6.78;3.42;;;;;;;22.14;67.03;98864.25;5050239;28;20060;-80
2021/09/14 09:35:39;;;;;;;4.97;3.15;;;;;;;22.29;68.29;98860.75;5051712;28;20057;-80
2021/09/14 09:38:07;;;;;;;16.85;3.42;;;;;;;22.48;68.48;98858.38;5051534;28;20057;-80
2021/09/14 09:40:35;;;;;;;4.60;3.60;;;;;;;22.53;68.56;98852.84;5052130;28;20052;-80
2021/09/14 09:43:05;;;;;;;7.10;3.88;;;;;;;22.61;67.73;98845.94;5051835;28;20497;-81
2021/09/14 09:45:32;;;;;;;;;;;;;;;22.86;68.27;98872.09;5052468;28;20485;-80
2021/09/14 09:47:59;;;;;;;7.93;3.80;;;;;;;22.92;65.77;98857.94;5051896;28;19975;-80
2021/09/14 09:50:26;;;;;;;5.63;3.53;;;;;;;22.98;66.25;98858.81;5045902;28;20111;-81
2021/09/14 09:53:14;;;;;;;9.82;3.63;;;;;;;23.14;66.72;98854.97;5031846;28;20056;-81
2021/09/14 09:55:41;;;;;;;5.07;3.38;;;;;;;23.25;66.62;98841.97;5040607;28;20052;-80
2021/09/14 09:58:09;;;;;;;10.40;4.18;;;;;;;23.23;64.85;98859.97;5034620;28;20440;-81
2021/09/14 10:00:38;;;;;;;6.65;3.60;;;;;;;23.32;65.03;98859.16;5051320;28;20052;-80
2021/09/14 10:03:07;;;;;;;9.98;4.10;;;;;;;23.36;65.84;98851.09;5052016;28;20045;-81
2021/09/14 10:05:37;;;;;;;6.85;3.70;;;;;;;23.36;64.86;98855.84;5050583;28;20068;-80
2021/09/14 10:08:08;;;;;;;7.53;4.10;;;;;;;23.38;66.70;98843.38;5051590;28;20068;-80
2021/09/14 10:10:36;;;;;;;11.48;4.07;;;;;;;23.57;64.48;98845.56;5052211;28;20125;-80
2021/09/14 10:13:05;;;;;;;8.70;3.75;;;;;;;23.78;64.53;98847.19;5051181;28;20061;-81
2021/09/14 10:15:38;;;;;;;6.93;3.85;;;;;;;23.80;67.15;98827.50;5051804;28;20165;-80
2021/09/14 10:18:05;;;;;;;5.15;3.88;;;;;;;24.00;65.00;98846.91;5051521;28;20090;-80
2021/09/14 10:20:39;;;;;;;8.23;4.05;;;;;;;23.92;64.67;98841.97;5051757;28;20060;-80
2021/09/14 10:23:09;;;;;;;5.60;3.80;;;;;;;24.16;64.13;98863.53;5051127;28;20064;-80
2021/09/14 10:25:37;;;;;;;6.40;3.63;;;;;;;24.19;64.47;98849.09;5033067;28;20584;-80
2021/09/14 10:28:09;;;;;;;7.32;3.90;;;;;;;24.26;61.90;98857.97;5035761;28;20053;-80
2021/09/14 10:30:36;;;;;;;9.10;4.18;;;;;;;24.38;63.23;98843.75;5052371;28;20053;-82
2021/09/14 10:33:03;;;;;;;9.52;3.67;;;;;;;24.38;62.56;98839.03;5055447;28;20045;-80
2021/09/14 10:35:33;;;;;;;15.30;4.05;;;;;;;24.52;62.05;98855.94;5054823;28;20049;-81
2021/09/14 10:38:11;;;;;;;7.65;3.90;;;;;;;24.62;61.88;98859.81;5055641;28;20049;-80
2021/09/14 10:40:43;;;;;;;6.45;3.85;;;;;;;24.74;62.88;98851.97;5046283;28;20060;-80
2021/09/14 10:43:22;;;;;;;4.82;3.90;;;;;;;24.80;56.69;98852.78;5035401;28;20053;-80
2021/09/14 10:45:49;;;;;;;6.25;4.07;;;;;;;24.80;56.37;98861.94;5038316;28;20507;-80
2021/09/14 10:48:27;;;;;;;11.27;3.17;;;;;;;24.80;57.36;98858.31;5055495;28;20052;-80
2021/09/14 10:50:55;;;;;;;13.80;4.47;;;;;;;24.92;56.50;98850.47;5055313;28;20456;-80
2021/09/14 10:53:25;;;;;;;6.07;3.60;;;;;;;25.00;54.94;98865.72;5054714;28;20523;-80
2021/09/14 10:55:54;;;;;;;6.70;3.70;;;;;;;24.91;56.35;98854.34;5046714;28;20038;-80
2021/09/14 10:58:21;;;;;;;6.65;3.90;;;;;;;24.89;56.31;98846.31;5046547;28;20385;-80
2021/09/14 11:00:49;;;;;;;5.85;3.67;;;;;;;24.95;56.80;98847.09;5055377;28;20067;-81
2021/09/14 11:03:25;;;;;;;7.00;4.07;;;;;;;24.88;57.20;98844.63;5054736;28;20128;-80
2021/09/14 11:05:53;;;;;;;6.60;3.85;;;;;;;24.97;57.66;98850.44;5054771;28;20404;-80
2021/09/14 11:08:32;;;;;;;5.40;3.47;;;;;;;25.04;56.81;98858.47;5054600;28;20056;-81
2021/09/14 11:11:00;;;;;;;7.50;3.70;;;;;;;25.09;57.87;98845.34;5055489;28;20056;-80
2021/09/14 11:13:29;;;;;;;7.20;3.30;;;;;;;25.48;55.99;98857.59;5039232;28;20103;-80
2021/09/14 11:15:58;;;;;;;5.82;3.95;;;;;;;25.40;53.73;98841.53;5054725;28;20080;-80
2021/09/14 11:18:25;;;;;;;8.68;3.67;;;;;;;25.48;53.72;98849.25;5054396;28;20064;-80
2021/09/14 11:20:53;;;;;;;5.18;3.55;;;;;;;25.36;54.40;98851.59;5054594;28;20084;-81
2021/09/14 11:23:27;;;;;;;6.20;4.30;;;;;;;25.22;55.37;98841.09;5055090;28;20079;-81
2021/09/14 11:25:56;;;;;;;7.93;3.38;;;;;;;25.23;56.44;98848.31;5054053;28;20041;-80
2021/09/14 11:28:23;;;;;;;9.13;4.25;;;;;;;25.21;55.68;98841.38;5038922;28;20055;-81
2021/09/14 11:30:56;;;;;;;7.53;3.80;;;;;;;25.14;57.44;98851.97;5039653;28;20477;-81
2021/09/14 11:33:23;;;;;;;6.30;4.13;;;;;;;25.10;55.86;98848.97;5054255;28;20045;-81
2021/09/14 11:35:51;;;;;;;4.63;3.58;;;;;;;25.11;56.79;98860.91;5053679;28;20067;-81
2021/09/14 11:38:19;;;;;;;8.63;4.20;;;;;;;25.17;56.00;98859.75;5053592;28;20497;-81
2021/09/14 11:40:49;;;;;;;7.60;3.55;;;;;;;25.14;56.77;98863.13;5054792;28;20045;-81
2021/09/14 11:43:24;;;;;;;7.43;3.53;;;;;;;25.33;56.59;98868.88;5054000;28;20493;-81
2021/09/14 11:45:53;;;;;;;8.20;3.97;;;;;;;25.41;54.28;98868.22;5034171;28;20042;-79
2021/09/14 11:48:22;;;;;;;10.50;4.00;;;;;;;25.56;53.58;98854.22;5047577;28;20049;-81
2021/09/14 11:50:50;;;;;;;6.37;3.57;;;;;;;25.81;53.84;98876.53;5054528;28;20075;-81
2021/09/14 11:53:18;;;;;;;10.50;3.58;;;;;;;25.74;53.21;98863.78;5053563;28;20299;-81
2021/09/14 11:55:48;;;;;;;8.32;3.53;;;;;;;25.60;54.53;98849.69;5053762;28;20052;-81
2021/09/14 11:58:15;;;;;;;;;;;;;;;25.58;53.34;98868.66;5054581;28;20052;-81
2021/09/14 12:00:45;;;;;;;8.00;3.65;;;;;;;25.58;52.78;98843.59;5039962;28;19925;-81
2021/09/14 12:03:14;;;;;;;7.68;3.70;;;;;;;25.46;53.73;98856.22;5034463;28;20394;-81
2021/09/14 12:05:41;;;;;;;5.53;3.67;;;;;;;25.31;53.64;98852.47;5051841;28;20558;-81
2021/09/14 12:08:12;;;;;;;7.28;3.70;;;;;;;25.55;53.93;98837.81;5053798;28;20056;-81
2021/09/14 12:10:48;;;;;;;8.40;4.00;;;;;;;25.66;55.10;98853.28;5053849;28;20099;-81
2021/09/14 12:13:19;;;;;;;8.02;4.10;;;;;;;25.69;55.23;98840.72;5053907;28;20055;-81
2021/09/14 12:15:47;;;;;;;16.45;4.10;;;;;;;25.99;54.23;98841.59;5052425;28;20107;-81
2021/09/14 12:18:15;;;;;;;6.30;4.53;;;;;;;26.03;54.37;98839.84;5054021;28;20056;-81
2021/09/14 12:20:43;;;;;;;4.88;3.45;;;;;;;26.34;53.70;98850.66;5053402;28;20037;-81
2021/09/14 12:23:10;;;;;;;10.95;3.78;;;;;;;26.36;54.32;98829.75;5053828;28;20143;-81
2021/09/14 12:25:37;;;;;;;8.10;3.90;;;;;;;26.43;52.98;98832.97;5053441;28;20469;-82